sensor_id;sensor_type;location;lat;lon;timestamp;P1;durP1;ratioP1;P2;durP2;ratioP2
15132;SDS011;7667;51.232;17.110;2023-07-31T00:00:55;2.67;;;2.17;;
15132;SDS011;7667;51.232;17.110;2023-07-31T00:03:22;3.40;;;2.17;;
15132;SDS011;7667;51.232;17.110;2023-07-31T00:05:50;2.13;;;1.93;;
15132;SDS011;7667;51.232;17.110;2023-07-31T00:08:18;3.57;;;2.07;;
15132;SDS011;7667;51.232;17.110;2023-07-31T00:10:45;4.10;;;2.03;;
15132;SDS011;7667;51.232;17.110;2023-07-31T00:13:13;2.63;;;2.10;;
15132;SDS011;7667;51.232;17.110;2023-07-31T00:15:41;2.20;;;2.00;;
15132;SDS011;7667;51.232;17.110;2023-07-31T00:18:08;3.03;;;1.90;;
15132;SDS011;7667;51.232;17.110;2023-07-31T00:20:36;2.47;;;2.20;;
15132;SDS011;7667;51.232;17.110;2023-07-31T00:23:03;3.57;;;2.50;;
15132;SDS011;7667;51.232;17.110;2023-07-31T00:25:31;3.10;;;2.40;;
15132;SDS011;7667;51.232;17.110;2023-07-31T00:27:58;2.47;;;2.27;;
15132;SDS011;7667;51.232;17.110;2023-07-31T00:30:26;2.83;;;2.40;;
15132;SDS011;7667;51.232;17.110;2023-07-31T00:32:54;4.63;;;2.50;;
15132;SDS011;7667;51.232;17.110;2023-07-31T00:35:21;2.47;;;2.20;;
15132;SDS011;7667;51.232;17.110;2023-07-31T00:37:49;3.63;;;2.47;;
15132;SDS011;7667;51.232;17.110;2023-07-31T00:40:16;3.97;;;2.40;;
15132;SDS011;7667;51.232;17.110;2023-07-31T00:42:44;3.27;;;2.40;;
15132;SDS011;7667;51.232;17.110;2023-07-31T00:45:11;3.03;;;2.20;;
15132;SDS011;7667;51.232;17.110;2023-07-31T00:47:39;3.33;;;2.43;;
15132;SDS011;7667;51.232;17.110;2023-07-31T00:50:07;4.37;;;2.20;;
15132;SDS011;7667;51.232;17.110;2023-07-31T00:52:35;5.17;;;2.43;;
15132;SDS011;7667;51.232;17.110;2023-07-31T00:55:04;3.43;;;2.43;;
15132;SDS011;7667;51.232;17.110;2023-07-31T00:57:32;4.93;;;2.40;;
15132;SDS011;7667;51.232;17.110;2023-07-31T01:00:02;4.63;;;2.60;;
15132;SDS011;7667;51.232;17.110;2023-07-31T01:02:30;4.73;;;2.63;;
15132;SDS011;7667;51.232;17.110;2023-07-31T01:04:57;3.40;;;2.53;;
15132;SDS011;7667;51.232;17.110;2023-07-31T01:10:16;5.73;;;2.77;;
15132;SDS011;7667;51.232;17.110;2023-07-31T01:12:50;5.20;;;2.70;;
15132;SDS011;7667;51.232;17.110;2023-07-31T01:15:18;3.87;;;2.70;;
15132;SDS011;7667;51.232;17.110;2023-07-31T01:17:47;3.40;;;2.90;;
15132;SDS011;7667;51.232;17.110;2023-07-31T01:20:17;3.63;;;2.60;;
15132;SDS011;7667;51.232;17.110;2023-07-31T01:28:53;3.30;;;2.60;;
15132;SDS011;7667;51.232;17.110;2023-07-31T01:31:30;2.80;;;2.50;;
15132;SDS011;7667;51.232;17.110;2023-07-31T01:34:00;3.43;;;2.47;;
15132;SDS011;7667;51.232;17.110;2023-07-31T01:36:29;3.70;;;2.43;;
15132;SDS011;7667;51.232;17.110;2023-07-31T01:38:58;3.90;;;2.30;;
15132;SDS011;7667;51.232;17.110;2023-07-31T01:41:27;4.03;;;2.60;;
15132;SDS011;7667;51.232;17.110;2023-07-31T01:43:55;2.53;;;2.23;;
15132;SDS011;7667;51.232;17.110;2023-07-31T01:46:23;3.90;;;2.20;;
15132;SDS011;7667;51.232;17.110;2023-07-31T01:48:51;3.67;;;2.30;;
15132;SDS011;7667;51.232;17.110;2023-07-31T01:51:18;3.23;;;2.23;;
15132;SDS011;7667;51.232;17.110;2023-07-31T01:53:46;4.07;;;2.10;;
15132;SDS011;7667;51.232;17.110;2023-07-31T01:56:13;3.57;;;2.10;;
15132;SDS011;7667;51.232;17.110;2023-07-31T01:58:41;4.17;;;2.60;;
15132;SDS011;7667;51.232;17.110;2023-07-31T02:01:08;3.80;;;2.47;;
15132;SDS011;7667;51.232;17.110;2023-07-31T02:03:36;4.40;;;2.60;;
15132;SDS011;7667;51.232;17.110;2023-07-31T02:06:04;4.07;;;2.20;;
15132;SDS011;7667;51.232;17.110;2023-07-31T02:08:31;5.50;;;2.50;;
15132;SDS011;7667;51.232;17.110;2023-07-31T02:10:59;3.80;;;2.23;;
15132;SDS011;7667;51.232;17.110;2023-07-31T02:13:26;3.93;;;2.10;;
15132;SDS011;7667;51.232;17.110;2023-07-31T02:15:54;3.13;;;2.10;;
15132;SDS011;7667;51.232;17.110;2023-07-31T02:18:22;2.00;;;1.80;;
15132;SDS011;7667;51.232;17.110;2023-07-31T02:20:50;2.70;;;2.30;;
15132;SDS011;7667;51.232;17.110;2023-07-31T02:23:19;4.33;;;2.23;;
15132;SDS011;7667;51.232;17.110;2023-07-31T02:25:46;3.53;;;2.07;;
15132;SDS011;7667;51.232;17.110;2023-07-31T02:28:14;3.33;;;2.33;;
15132;SDS011;7667;51.232;17.110;2023-07-31T02:30:45;2.80;;;2.10;;
15132;SDS011;7667;51.232;17.110;2023-07-31T02:33:14;2.80;;;2.00;;
15132;SDS011;7667;51.232;17.110;2023-07-31T02:35:43;4.63;;;2.30;;
15132;SDS011;7667;51.232;17.110;2023-07-31T02:38:10;3.30;;;2.23;;
15132;SDS011;7667;51.232;17.110;2023-07-31T02:40:39;4.13;;;2.30;;
15132;SDS011;7667;51.232;17.110;2023-07-31T02:43:10;3.40;;;2.40;;
15132;SDS011;7667;51.232;17.110;2023-07-31T02:45:38;4.87;;;1.97;;
15132;SDS011;7667;51.232;17.110;2023-07-31T02:48:06;3.17;;;2.27;;
15132;SDS011;7667;51.232;17.110;2023-07-31T02:50:34;3.23;;;2.17;;
15132;SDS011;7667;51.232;17.110;2023-07-31T02:53:01;6.17;;;2.93;;
15132;SDS011;7667;51.232;17.110;2023-07-31T02:55:29;2.83;;;2.20;;
15132;SDS011;7667;51.232;17.110;2023-07-31T02:57:56;3.83;;;2.40;;
15132;SDS011;7667;51.232;17.110;2023-07-31T03:00:24;6.93;;;2.27;;
15132;SDS011;7667;51.232;17.110;2023-07-31T03:02:52;3.90;;;2.60;;
15132;SDS011;7667;51.232;17.110;2023-07-31T03:05:20;2.73;;;2.10;;
15132;SDS011;7667;51.232;17.110;2023-07-31T03:07:47;3.60;;;2.50;;
15132;SDS011;7667;51.232;17.110;2023-07-31T03:10:15;4.67;;;2.70;;
15132;SDS011;7667;51.232;17.110;2023-07-31T03:12:45;3.77;;;2.30;;
15132;SDS011;7667;51.232;17.110;2023-07-31T03:15:14;5.10;;;2.20;;
15132;SDS011;7667;51.232;17.110;2023-07-31T03:17:42;4.93;;;2.27;;
15132;SDS011;7667;51.232;17.110;2023-07-31T03:20:10;3.60;;;2.20;;
15132;SDS011;7667;51.232;17.110;2023-07-31T03:22:38;2.70;;;2.00;;
15132;SDS011;7667;51.232;17.110;2023-07-31T03:25:05;4.23;;;2.43;;
15132;SDS011;7667;51.232;17.110;2023-07-31T03:27:33;5.60;;;2.50;;
15132;SDS011;7667;51.232;17.110;2023-07-31T03:30:02;3.03;;;2.20;;
15132;SDS011;7667;51.232;17.110;2023-07-31T03:32:30;2.57;;;2.00;;
15132;SDS011;7667;51.232;17.110;2023-07-31T03:34:58;2.87;;;2.40;;
15132;SDS011;7667;51.232;17.110;2023-07-31T03:37:25;4.20;;;2.10;;
15132;SDS011;7667;51.232;17.110;2023-07-31T03:39:53;3.77;;;2.47;;
15132;SDS011;7667;51.232;17.110;2023-07-31T03:42:21;3.73;;;2.37;;
15132;SDS011;7667;51.232;17.110;2023-07-31T03:44:48;3.47;;;2.47;;
15132;SDS011;7667;51.232;17.110;2023-07-31T03:47:16;4.47;;;2.20;;
15132;SDS011;7667;51.232;17.110;2023-07-31T03:49:43;6.00;;;2.70;;
15132;SDS011;7667;51.232;17.110;2023-07-31T03:52:11;3.20;;;2.50;;
15132;SDS011;7667;51.232;17.110;2023-07-31T03:54:38;4.00;;;2.50;;
15132;SDS011;7667;51.232;17.110;2023-07-31T03:57:06;5.07;;;2.50;;
15132;SDS011;7667;51.232;17.110;2023-07-31T03:59:33;5.17;;;2.60;;
15132;SDS011;7667;51.232;17.110;2023-07-31T04:02:01;5.37;;;2.40;;
15132;SDS011;7667;51.232;17.110;2023-07-31T04:04:29;3.97;;;2.60;;
15132;SDS011;7667;51.232;17.110;2023-07-31T04:06:59;5.70;;;2.60;;
15132;SDS011;7667;51.232;17.110;2023-07-31T04:09:27;6.30;;;2.50;;
15132;SDS011;7667;51.232;17.110;2023-07-31T04:11:54;4.17;;;2.90;;
15132;SDS011;7667;51.232;17.110;2023-07-31T04:14:22;4.53;;;2.50;;
15132;SDS011;7667;51.232;17.110;2023-07-31T04:16:50;3.87;;;2.57;;
15132;SDS011;7667;51.232;17.110;2023-07-31T04:19:17;5.37;;;2.60;;
15132;SDS011;7667;51.232;17.110;2023-07-31T04:21:45;6.00;;;2.70;;
15132;SDS011;7667;51.232;17.110;2023-07-31T04:24:12;6.20;;;2.40;;
15132;SDS011;7667;51.232;17.110;2023-07-31T04:26:40;4.87;;;2.60;;
15132;SDS011;7667;51.232;17.110;2023-07-31T04:29:08;5.60;;;2.60;;
15132;SDS011;7667;51.232;17.110;2023-07-31T04:31:35;4.90;;;2.67;;
15132;SDS011;7667;51.232;17.110;2023-07-31T04:34:05;3.10;;;2.50;;
15132;SDS011;7667;51.232;17.110;2023-07-31T04:36:33;7.80;;;2.40;;
15132;SDS011;7667;51.232;17.110;2023-07-31T04:39:01;2.60;;;2.37;;
15132;SDS011;7667;51.232;17.110;2023-07-31T04:41:29;3.83;;;2.67;;
15132;SDS011;7667;51.232;17.110;2023-07-31T04:43:57;4.17;;;2.50;;
15132;SDS011;7667;51.232;17.110;2023-07-31T04:46:24;4.07;;;2.60;;
15132;SDS011;7667;51.232;17.110;2023-07-31T04:48:52;5.87;;;2.40;;
15132;SDS011;7667;51.232;17.110;2023-07-31T04:51:19;4.73;;;2.40;;
15132;SDS011;7667;51.232;17.110;2023-07-31T04:53:47;4.90;;;1.80;;
15132;SDS011;7667;51.232;17.110;2023-07-31T04:56:15;5.17;;;2.30;;
15132;SDS011;7667;51.232;17.110;2023-07-31T04:58:43;5.97;;;2.13;;
15132;SDS011;7667;51.232;17.110;2023-07-31T05:01:10;6.13;;;2.60;;
15132;SDS011;7667;51.232;17.110;2023-07-31T05:03:38;2.93;;;2.20;;
15132;SDS011;7667;51.232;17.110;2023-07-31T05:06:06;4.03;;;2.50;;
15132;SDS011;7667;51.232;17.110;2023-07-31T05:08:33;5.07;;;2.20;;
15132;SDS011;7667;51.232;17.110;2023-07-31T05:11:01;6.30;;;2.60;;
15132;SDS011;7667;51.232;17.110;2023-07-31T05:13:30;6.27;;;2.33;;
15132;SDS011;7667;51.232;17.110;2023-07-31T05:15:57;3.00;;;2.13;;
15132;SDS011;7667;51.232;17.110;2023-07-31T05:18:28;5.33;;;2.00;;
15132;SDS011;7667;51.232;17.110;2023-07-31T05:20:56;4.40;;;2.30;;
15132;SDS011;7667;51.232;17.110;2023-07-31T05:23:23;4.33;;;2.17;;
15132;SDS011;7667;51.232;17.110;2023-07-31T05:25:51;4.33;;;2.00;;
15132;SDS011;7667;51.232;17.110;2023-07-31T05:28:21;3.90;;;2.00;;
15132;SDS011;7667;51.232;17.110;2023-07-31T05:30:49;4.33;;;2.10;;
15132;SDS011;7667;51.232;17.110;2023-07-31T05:33:16;4.47;;;2.27;;
15132;SDS011;7667;51.232;17.110;2023-07-31T05:35:44;4.97;;;1.70;;
15132;SDS011;7667;51.232;17.110;2023-07-31T05:38:11;4.40;;;2.03;;
15132;SDS011;7667;51.232;17.110;2023-07-31T05:40:39;4.83;;;2.00;;
15132;SDS011;7667;51.232;17.110;2023-07-31T05:43:06;5.37;;;2.03;;
15132;SDS011;7667;51.232;17.110;2023-07-31T05:45:35;3.67;;;2.20;;
15132;SDS011;7667;51.232;17.110;2023-07-31T05:48:03;5.17;;;2.30;;
15132;SDS011;7667;51.232;17.110;2023-07-31T05:50:31;3.43;;;1.90;;
15132;SDS011;7667;51.232;17.110;2023-07-31T05:52:59;5.00;;;2.23;;
15132;SDS011;7667;51.232;17.110;2023-07-31T05:55:26;6.17;;;2.10;;
15132;SDS011;7667;51.232;17.110;2023-07-31T05:57:54;6.97;;;2.40;;
15132;SDS011;7667;51.232;17.110;2023-07-31T06:00:23;4.23;;;2.30;;
15132;SDS011;7667;51.232;17.110;2023-07-31T06:02:51;6.27;;;2.63;;
15132;SDS011;7667;51.232;17.110;2023-07-31T06:05:19;3.67;;;2.27;;
15132;SDS011;7667;51.232;17.110;2023-07-31T06:07:47;3.90;;;2.20;;
15132;SDS011;7667;51.232;17.110;2023-07-31T06:10:14;3.73;;;1.90;;
15132;SDS011;7667;51.232;17.110;2023-07-31T06:12:42;3.70;;;1.90;;
15132;SDS011;7667;51.232;17.110;2023-07-31T06:15:10;4.07;;;1.83;;
15132;SDS011;7667;51.232;17.110;2023-07-31T06:17:37;3.47;;;1.87;;
15132;SDS011;7667;51.232;17.110;2023-07-31T06:20:06;3.43;;;1.93;;
15132;SDS011;7667;51.232;17.110;2023-07-31T06:22:34;6.10;;;2.10;;
15132;SDS011;7667;51.232;17.110;2023-07-31T06:25:01;4.67;;;2.33;;
15132;SDS011;7667;51.232;17.110;2023-07-31T06:27:29;3.70;;;2.00;;
15132;SDS011;7667;51.232;17.110;2023-07-31T06:29:57;4.17;;;2.10;;
15132;SDS011;7667;51.232;17.110;2023-07-31T06:32:24;5.17;;;1.83;;
15132;SDS011;7667;51.232;17.110;2023-07-31T06:34:52;3.07;;;1.90;;
15132;SDS011;7667;51.232;17.110;2023-07-31T06:37:20;5.20;;;2.00;;
15132;SDS011;7667;51.232;17.110;2023-07-31T06:39:48;4.20;;;1.93;;
15132;SDS011;7667;51.232;17.110;2023-07-31T06:42:16;4.30;;;1.80;;
15132;SDS011;7667;51.232;17.110;2023-07-31T06:44:44;3.00;;;1.53;;
15132;SDS011;7667;51.232;17.110;2023-07-31T06:47:11;4.33;;;2.10;;
15132;SDS011;7667;51.232;17.110;2023-07-31T06:49:39;2.70;;;1.50;;
15132;SDS011;7667;51.232;17.110;2023-07-31T06:52:06;3.70;;;1.60;;
15132;SDS011;7667;51.232;17.110;2023-07-31T06:54:34;2.83;;;1.80;;
15132;SDS011;7667;51.232;17.110;2023-07-31T06:57:01;4.10;;;1.60;;
15132;SDS011;7667;51.232;17.110;2023-07-31T06:59:30;3.30;;;1.77;;
15132;SDS011;7667;51.232;17.110;2023-07-31T07:01:57;3.50;;;1.70;;
15132;SDS011;7667;51.232;17.110;2023-07-31T07:04:25;3.23;;;1.70;;
15132;SDS011;7667;51.232;17.110;2023-07-31T07:06:53;3.13;;;1.60;;
15132;SDS011;7667;51.232;17.110;2023-07-31T07:09:21;2.47;;;1.60;;
15132;SDS011;7667;51.232;17.110;2023-07-31T07:11:48;3.80;;;1.40;;
15132;SDS011;7667;51.232;17.110;2023-07-31T07:14:16;2.37;;;1.43;;
15132;SDS011;7667;51.232;17.110;2023-07-31T07:16:43;4.37;;;1.53;;
15132;SDS011;7667;51.232;17.110;2023-07-31T07:19:11;3.07;;;1.43;;
15132;SDS011;7667;51.232;17.110;2023-07-31T07:21:38;3.93;;;1.60;;
15132;SDS011;7667;51.232;17.110;2023-07-31T07:24:06;3.67;;;1.50;;
15132;SDS011;7667;51.232;17.110;2023-07-31T07:26:33;3.70;;;1.40;;
15132;SDS011;7667;51.232;17.110;2023-07-31T07:29:01;4.57;;;1.90;;
15132;SDS011;7667;51.232;17.110;2023-07-31T07:31:29;4.30;;;1.63;;
15132;SDS011;7667;51.232;17.110;2023-07-31T07:33:56;6.17;;;1.60;;
15132;SDS011;7667;51.232;17.110;2023-07-31T07:36:24;4.43;;;1.50;;
15132;SDS011;7667;51.232;17.110;2023-07-31T07:38:52;2.47;;;1.47;;
15132;SDS011;7667;51.232;17.110;2023-07-31T07:41:19;3.10;;;1.53;;
15132;SDS011;7667;51.232;17.110;2023-07-31T07:43:47;3.67;;;1.50;;
15132;SDS011;7667;51.232;17.110;2023-07-31T07:46:14;3.55;;;1.63;;
15132;SDS011;7667;51.232;17.110;2023-07-31T07:48:42;4.23;;;1.50;;
15132;SDS011;7667;51.232;17.110;2023-07-31T07:51:09;3.07;;;1.47;;
15132;SDS011;7667;51.232;17.110;2023-07-31T07:53:37;3.63;;;1.37;;
15132;SDS011;7667;51.232;17.110;2023-07-31T07:56:04;5.15;;;1.60;;
15132;SDS011;7667;51.232;17.110;2023-07-31T07:58:32;3.05;;;1.52;;
15132;SDS011;7667;51.232;17.110;2023-07-31T08:00:59;2.45;;;1.38;;
15132;SDS011;7667;51.232;17.110;2023-07-31T08:03:27;3.58;;;1.30;;
15132;SDS011;7667;51.232;17.110;2023-07-31T08:06:00;2.53;;;1.30;;
15132;SDS011;7667;51.232;17.110;2023-07-31T08:08:28;3.10;;;1.40;;
15132;SDS011;7667;51.232;17.110;2023-07-31T08:10:56;3.65;;;1.40;;
15132;SDS011;7667;51.232;17.110;2023-07-31T08:13:23;3.90;;;1.45;;
15132;SDS011;7667;51.232;17.110;2023-07-31T08:15:51;3.00;;;1.60;;
15132;SDS011;7667;51.232;17.110;2023-07-31T08:18:18;3.35;;;1.30;;
15132;SDS011;7667;51.232;17.110;2023-07-31T08:20:46;4.25;;;1.30;;
15132;SDS011;7667;51.232;17.110;2023-07-31T08:23:14;3.38;;;1.40;;
15132;SDS011;7667;51.232;17.110;2023-07-31T08:25:42;2.35;;;1.17;;
15132;SDS011;7667;51.232;17.110;2023-07-31T08:28:09;3.13;;;1.30;;
15132;SDS011;7667;51.232;17.110;2023-07-31T08:30:37;2.35;;;1.50;;
15132;SDS011;7667;51.232;17.110;2023-07-31T08:33:04;3.80;;;1.40;;
15132;SDS011;7667;51.232;17.110;2023-07-31T08:35:32;4.43;;;1.67;;
15132;SDS011;7667;51.232;17.110;2023-07-31T08:37:59;4.28;;;1.30;;
15132;SDS011;7667;51.232;17.110;2023-07-31T08:40:28;2.35;;;1.05;;
15132;SDS011;7667;51.232;17.110;2023-07-31T08:42:56;2.50;;;1.10;;
15132;SDS011;7667;51.232;17.110;2023-07-31T08:45:25;1.95;;;1.15;;
15132;SDS011;7667;51.232;17.110;2023-07-31T08:47:53;3.25;;;1.33;;
15132;SDS011;7667;51.232;17.110;2023-07-31T08:50:23;1.80;;;1.25;;
15132;SDS011;7667;51.232;17.110;2023-07-31T08:52:51;2.20;;;1.20;;
15132;SDS011;7667;51.232;17.110;2023-07-31T08:55:22;3.97;;;1.33;;
15132;SDS011;7667;51.232;17.110;2023-07-31T08:57:51;3.15;;;1.45;;
15132;SDS011;7667;51.232;17.110;2023-07-31T09:00:22;4.00;;;1.40;;
15132;SDS011;7667;51.232;17.110;2023-07-31T09:05:31;1.83;;;1.20;;
15132;SDS011;7667;51.232;17.110;2023-07-31T09:07:58;3.60;;;1.30;;
15132;SDS011;7667;51.232;17.110;2023-07-31T09:10:29;1.97;;;1.20;;
15132;SDS011;7667;51.232;17.110;2023-07-31T09:12:57;4.17;;;1.80;;
15132;SDS011;7667;51.232;17.110;2023-07-31T09:15:25;3.03;;;1.50;;
15132;SDS011;7667;51.232;17.110;2023-07-31T09:18:04;3.00;;;1.40;;
15132;SDS011;7667;51.232;17.110;2023-07-31T09:20:35;3.07;;;1.50;;
15132;SDS011;7667;51.232;17.110;2023-07-31T09:23:11;2.87;;;1.27;;
15132;SDS011;7667;51.232;17.110;2023-07-31T09:25:43;3.30;;;1.50;;
15132;SDS011;7667;51.232;17.110;2023-07-31T09:28:11;3.40;;;1.40;;
15132;SDS011;7667;51.232;17.110;2023-07-31T09:30:57;2.80;;;1.60;;
15132;SDS011;7667;51.232;17.110;2023-07-31T09:33:25;4.43;;;1.40;;
15132;SDS011;7667;51.232;17.110;2023-07-31T09:35:52;4.83;;;1.50;;
15132;SDS011;7667;51.232;17.110;2023-07-31T09:38:20;2.30;;;1.40;;
15132;SDS011;7667;51.232;17.110;2023-07-31T09:40:48;5.20;;;1.60;;
15132;SDS011;7667;51.232;17.110;2023-07-31T09:43:19;2.67;;;1.30;;
15132;SDS011;7667;51.232;17.110;2023-07-31T09:45:52;2.43;;;1.50;;
15132;SDS011;7667;51.232;17.110;2023-07-31T09:48:24;3.83;;;1.70;;
15132;SDS011;7667;51.232;17.110;2023-07-31T09:50:54;2.80;;;1.70;;
15132;SDS011;7667;51.232;17.110;2023-07-31T09:53:27;3.47;;;1.60;;
15132;SDS011;7667;51.232;17.110;2023-07-31T09:55:59;3.60;;;1.80;;
15132;SDS011;7667;51.232;17.110;2023-07-31T09:58:28;2.77;;;1.67;;
15132;SDS011;7667;51.232;17.110;2023-07-31T10:00:59;3.90;;;1.60;;
15132;SDS011;7667;51.232;17.110;2023-07-31T10:03:29;2.70;;;1.87;;
15132;SDS011;7667;51.232;17.110;2023-07-31T10:05:58;4.33;;;1.80;;
15132;SDS011;7667;51.232;17.110;2023-07-31T10:08:30;3.43;;;1.90;;
15132;SDS011;7667;51.232;17.110;2023-07-31T10:10:59;5.63;;;2.30;;
15132;SDS011;7667;51.232;17.110;2023-07-31T10:13:30;2.30;;;1.70;;
15132;SDS011;7667;51.232;17.110;2023-07-31T10:15:58;2.13;;;1.80;;
15132;SDS011;7667;51.232;17.110;2023-07-31T10:18:29;3.43;;;2.13;;
15132;SDS011;7667;51.232;17.110;2023-07-31T10:20:57;2.13;;;1.90;;
15132;SDS011;7667;51.232;17.110;2023-07-31T10:23:25;3.33;;;1.87;;
15132;SDS011;7667;51.232;17.110;2023-07-31T10:25:55;2.80;;;1.70;;
15132;SDS011;7667;51.232;17.110;2023-07-31T10:28:25;3.37;;;1.80;;
15132;SDS011;7667;51.232;17.110;2023-07-31T10:30:53;3.03;;;1.70;;
15132;SDS011;7667;51.232;17.110;2023-07-31T10:33:21;2.40;;;1.47;;
15132;SDS011;7667;51.232;17.110;2023-07-31T10:35:49;3.90;;;1.67;;
15132;SDS011;7667;51.232;17.110;2023-07-31T10:38:20;3.17;;;1.43;;
15132;SDS011;7667;51.232;17.110;2023-07-31T10:40:51;2.47;;;1.50;;
15132;SDS011;7667;51.232;17.110;2023-07-31T10:43:24;2.70;;;1.43;;
15132;SDS011;7667;51.232;17.110;2023-07-31T10:45:54;2.87;;;1.40;;
15132;SDS011;7667;51.232;17.110;2023-07-31T10:48:21;4.13;;;1.30;;
15132;SDS011;7667;51.232;17.110;2023-07-31T10:50:51;2.93;;;1.50;;
15132;SDS011;7667;51.232;17.110;2023-07-31T10:53:30;2.97;;;1.57;;
15132;SDS011;7667;51.232;17.110;2023-07-31T10:56:03;2.07;;;1.50;;
15132;SDS011;7667;51.232;17.110;2023-07-31T10:58:39;2.00;;;1.60;;
15132;SDS011;7667;51.232;17.110;2023-07-31T11:01:10;2.87;;;1.47;;
15132;SDS011;7667;51.232;17.110;2023-07-31T11:06:19;2.27;;;1.17;;
15132;SDS011;7667;51.232;17.110;2023-07-31T11:08:50;2.10;;;1.50;;
15132;SDS011;7667;51.232;17.110;2023-07-31T11:11:18;2.13;;;1.30;;
15132;SDS011;7667;51.232;17.110;2023-07-31T11:13:51;2.77;;;1.40;;
15132;SDS011;7667;51.232;17.110;2023-07-31T11:16:21;2.70;;;1.70;;
15132;SDS011;7667;51.232;17.110;2023-07-31T11:18:53;2.30;;;1.50;;
15132;SDS011;7667;51.232;17.110;2023-07-31T11:21:23;2.47;;;1.40;;
15132;SDS011;7667;51.232;17.110;2023-07-31T11:23:53;3.00;;;1.50;;
15132;SDS011;7667;51.232;17.110;2023-07-31T11:26:27;1.90;;;1.40;;
15132;SDS011;7667;51.232;17.110;2023-07-31T11:28:57;1.63;;;1.30;;
15132;SDS011;7667;51.232;17.110;2023-07-31T11:31:25;2.88;;;1.30;;
15132;SDS011;7667;51.232;17.110;2023-07-31T11:34:14;2.58;;;1.50;;
15132;SDS011;7667;51.232;17.110;2023-07-31T11:36:42;1.88;;;1.40;;
15132;SDS011;7667;51.232;17.110;2023-07-31T11:39:22;2.33;;;1.40;;
15132;SDS011;7667;51.232;17.110;2023-07-31T11:41:50;1.42;;;1.27;;
15132;SDS011;7667;51.232;17.110;2023-07-31T11:44:18;1.65;;;1.40;;
15132;SDS011;7667;51.232;17.110;2023-07-31T11:46:56;1.58;;;1.27;;
15132;SDS011;7667;51.232;17.110;2023-07-31T11:49:24;2.00;;;1.00;;
15132;SDS011;7667;51.232;17.110;2023-07-31T11:51:53;2.38;;;1.25;;
15132;SDS011;7667;51.232;17.110;2023-07-31T11:54:21;2.10;;;1.20;;
15132;SDS011;7667;51.232;17.110;2023-07-31T11:56:48;1.35;;;1.02;;
15132;SDS011;7667;51.232;17.110;2023-07-31T11:59:17;1.83;;;1.10;;
15132;SDS011;7667;51.232;17.110;2023-07-31T12:01:45;2.13;;;1.17;;
15132;SDS011;7667;51.232;17.110;2023-07-31T12:04:13;1.98;;;1.30;;
15132;SDS011;7667;51.232;17.110;2023-07-31T12:06:41;2.25;;;1.42;;
15132;SDS011;7667;51.232;17.110;2023-07-31T12:09:09;2.13;;;1.33;;
15132;SDS011;7667;51.232;17.110;2023-07-31T12:11:43;3.22;;;1.52;;
15132;SDS011;7667;51.232;17.110;2023-07-31T12:14:21;1.85;;;1.45;;
15132;SDS011;7667;51.232;17.110;2023-07-31T12:17:01;2.47;;;1.45;;
15132;SDS011;7667;51.232;17.110;2023-07-31T12:19:31;2.58;;;1.58;;
15132;SDS011;7667;51.232;17.110;2023-07-31T12:21:59;3.08;;;1.75;;
15132;SDS011;7667;51.232;17.110;2023-07-31T12:24:27;4.07;;;1.70;;
15132;SDS011;7667;51.232;17.110;2023-07-31T12:26:55;3.15;;;1.88;;
15132;SDS011;7667;51.232;17.110;2023-07-31T12:29:22;2.95;;;1.60;;
15132;SDS011;7667;51.232;17.110;2023-07-31T12:31:50;2.28;;;1.60;;
15132;SDS011;7667;51.232;17.110;2023-07-31T12:34:18;2.08;;;1.40;;
15132;SDS011;7667;51.232;17.110;2023-07-31T12:36:50;2.65;;;1.88;;
15132;SDS011;7667;51.232;17.110;2023-07-31T12:39:20;2.22;;;1.50;;
15132;SDS011;7667;51.232;17.110;2023-07-31T12:41:48;1.73;;;1.60;;
15132;SDS011;7667;51.232;17.110;2023-07-31T12:44:15;3.10;;;1.60;;
15132;SDS011;7667;51.232;17.110;2023-07-31T12:46:43;1.40;;;1.30;;
15132;SDS011;7667;51.232;17.110;2023-07-31T12:49:10;2.20;;;1.58;;
15132;SDS011;7667;51.232;17.110;2023-07-31T12:51:38;2.47;;;1.42;;
15132;SDS011;7667;51.232;17.110;2023-07-31T12:54:06;1.73;;;1.30;;
15132;SDS011;7667;51.232;17.110;2023-07-31T12:56:34;3.92;;;1.58;;
15132;SDS011;7667;51.232;17.110;2023-07-31T12:59:01;2.13;;;1.60;;
15132;SDS011;7667;51.232;17.110;2023-07-31T13:01:29;1.83;;;1.48;;
15132;SDS011;7667;51.232;17.110;2023-07-31T13:03:56;6.20;;;1.70;;
15132;SDS011;7667;51.232;17.110;2023-07-31T13:06:27;4.30;;;1.77;;
15132;SDS011;7667;51.232;17.110;2023-07-31T13:08:55;2.67;;;1.83;;
15132;SDS011;7667;51.232;17.110;2023-07-31T13:11:22;2.45;;;1.70;;
15132;SDS011;7667;51.232;17.110;2023-07-31T13:13:50;3.30;;;1.67;;
15132;SDS011;7667;51.232;17.110;2023-07-31T13:16:17;3.08;;;1.67;;
15132;SDS011;7667;51.232;17.110;2023-07-31T13:18:45;2.03;;;1.50;;
15132;SDS011;7667;51.232;17.110;2023-07-31T13:21:12;2.13;;;1.60;;
15132;SDS011;7667;51.232;17.110;2023-07-31T13:23:40;3.35;;;1.80;;
15132;SDS011;7667;51.232;17.110;2023-07-31T13:26:08;2.60;;;1.40;;
15132;SDS011;7667;51.232;17.110;2023-07-31T13:28:36;3.67;;;1.77;;
15132;SDS011;7667;51.232;17.110;2023-07-31T13:31:03;2.15;;;1.90;;
15132;SDS011;7667;51.232;17.110;2023-07-31T13:33:31;4.65;;;1.77;;
15132;SDS011;7667;51.232;17.110;2023-07-31T13:36:04;2.25;;;1.50;;
15132;SDS011;7667;51.232;17.110;2023-07-31T13:38:31;3.13;;;1.70;;
15132;SDS011;7667;51.232;17.110;2023-07-31T13:40:59;2.67;;;1.90;;
15132;SDS011;7667;51.232;17.110;2023-07-31T13:43:27;3.92;;;1.75;;
15132;SDS011;7667;51.232;17.110;2023-07-31T13:45:54;2.10;;;1.75;;
15132;SDS011;7667;51.232;17.110;2023-07-31T13:48:22;2.55;;;1.80;;
15132;SDS011;7667;51.232;17.110;2023-07-31T13:50:50;5.78;;;2.10;;
15132;SDS011;7667;51.232;17.110;2023-07-31T13:53:17;1.90;;;1.60;;
15132;SDS011;7667;51.232;17.110;2023-07-31T13:55:45;2.75;;;1.70;;
15132;SDS011;7667;51.232;17.110;2023-07-31T13:58:12;3.75;;;1.70;;
15132;SDS011;7667;51.232;17.110;2023-07-31T14:00:40;3.72;;;1.65;;
15132;SDS011;7667;51.232;17.110;2023-07-31T14:03:07;3.15;;;2.30;;
15132;SDS011;7667;51.232;17.110;2023-07-31T14:05:35;2.70;;;1.70;;
15132;SDS011;7667;51.232;17.110;2023-07-31T14:08:04;3.88;;;1.90;;
15132;SDS011;7667;51.232;17.110;2023-07-31T14:10:31;2.30;;;1.73;;
15132;SDS011;7667;51.232;17.110;2023-07-31T14:12:59;1.90;;;1.70;;
15132;SDS011;7667;51.232;17.110;2023-07-31T14:15:26;2.17;;;1.70;;
15132;SDS011;7667;51.232;17.110;2023-07-31T14:17:55;2.47;;;1.73;;
15132;SDS011;7667;51.232;17.110;2023-07-31T14:20:27;3.05;;;1.80;;
15132;SDS011;7667;51.232;17.110;2023-07-31T14:22:55;2.63;;;1.80;;
15132;SDS011;7667;51.232;17.110;2023-07-31T14:25:23;1.98;;;1.60;;
15132;SDS011;7667;51.232;17.110;2023-07-31T14:27:50;4.80;;;1.80;;
15132;SDS011;7667;51.232;17.110;2023-07-31T14:30:18;2.50;;;1.85;;
15132;SDS011;7667;51.232;17.110;2023-07-31T14:32:46;1.67;;;1.55;;
15132;SDS011;7667;51.232;17.110;2023-07-31T14:35:13;2.35;;;2.05;;
15132;SDS011;7667;51.232;17.110;2023-07-31T14:37:42;2.25;;;1.65;;
15132;SDS011;7667;51.232;17.110;2023-07-31T14:40:12;2.53;;;1.83;;
15132;SDS011;7667;51.232;17.110;2023-07-31T14:42:40;2.42;;;1.65;;
15132;SDS011;7667;51.232;17.110;2023-07-31T14:45:08;1.52;;;1.42;;
15132;SDS011;7667;51.232;17.110;2023-07-31T14:47:36;1.50;;;1.40;;
15132;SDS011;7667;51.232;17.110;2023-07-31T14:50:04;2.05;;;1.30;;
15132;SDS011;7667;51.232;17.110;2023-07-31T14:52:32;1.73;;;1.38;;
15132;SDS011;7667;51.232;17.110;2023-07-31T14:55:00;1.90;;;1.10;;
15132;SDS011;7667;51.232;17.110;2023-07-31T14:57:28;2.45;;;1.40;;
15132;SDS011;7667;51.232;17.110;2023-07-31T14:59:55;2.10;;;1.25;;
15132;SDS011;7667;51.232;17.110;2023-07-31T15:02:23;2.72;;;1.35;;
15132;SDS011;7667;51.232;17.110;2023-07-31T15:04:54;2.15;;;1.35;;
15132;SDS011;7667;51.232;17.110;2023-07-31T15:07:21;1.48;;;1.27;;
15132;SDS011;7667;51.232;17.110;2023-07-31T15:09:49;2.05;;;1.30;;